< < Back
Terminal Aerodrome Forecast


Current Version              Previous Versions:   1  2  3  4  5  6  7  8  9  

Terminal Aerodrome Forecast

076
FTUS42 KGSP 310537
TAFGSP
TAF
KGSP 310537Z 3106/0106 36003KT P6SM SCT250
     FM311400 04003KT P6SM FEW060 BKN140
     FM311700 00000KT P6SM SCT060 BKN120
     FM010100 33006KT P6SM VCSH BKN060
     FM010500 33010KT P6SM -RA BKN050=



Latest METAR

928
SAUS70 KWBC 310500 RRK
MTRGSP
METAR KGSP 310453Z AUTO 36003KT 10SM CLR 09/06 A2996 RMK AO2 SLP140
T00890056 402000078


USA.gov is the U.S. government's official web portal to all federal, state and local government web resources and services.